createdAt,value
2016-04-22T00:00:29.757Z,0
2016-04-22T00:01:29.728Z,0
2016-04-22T00:02:29.716Z,0
2016-04-22T00:03:29.546Z,0
2016-04-22T00:04:29.667Z,0
2016-04-22T00:05:29.623Z,0
2016-04-22T00:06:29.611Z,0
2016-04-22T00:07:29.582Z,0
2016-04-22T00:08:29.553Z,0
2016-04-22T00:09:29.525Z,0
2016-04-22T00:10:29.512Z,0
2016-04-22T00:11:29.155Z,0
2016-04-22T00:12:29.439Z,0
2016-04-22T00:13:29.411Z,0
2016-04-22T00:14:29.383Z,0
2016-04-22T00:15:29.353Z,0
2016-04-22T00:16:29.341Z,0
2016-04-22T00:17:29.296Z,0
2016-04-22T00:18:29.284Z,0
2016-04-22T00:19:29.255Z,0
2016-04-22T00:20:29.227Z,0
2016-04-22T00:21:29.213Z,0
2016-04-22T00:22:29.201Z,0
2016-04-22T00:23:29.141Z,0
2016-04-22T00:24:29.113Z,0
2016-04-22T00:25:29.099Z,0
2016-04-22T00:26:29.055Z,0
2016-04-22T00:27:29.027Z,0
2016-04-22T00:28:29.013Z,0
2016-04-22T00:29:28.970Z,0
2016-04-22T00:30:28.957Z,0
2016-04-22T00:31:28.929Z,0
2016-04-22T00:32:28.884Z,0
2016-04-22T00:33:28.856Z,0
2016-04-22T00:34:28.873Z,0
2016-04-22T00:35:28.814Z,0
2016-04-22T00:36:28.786Z,0
2016-04-22T00:37:28.789Z,0
2016-04-22T00:38:28.730Z,0
2016-04-22T00:39:28.716Z,0
2016-04-22T00:40:28.672Z,0
2016-04-22T00:41:28.644Z,0
2016-04-22T00:42:28.615Z,0
2016-04-22T00:43:28.586Z,0
2016-04-22T00:44:28.558Z,0
2016-04-22T00:45:28.545Z,0
2016-04-22T00:46:28.516Z,0
2016-04-22T00:47:28.487Z,0
2016-04-22T00:48:28.459Z,0
2016-04-22T00:49:28.430Z,0
2016-04-22T00:50:28.402Z,0
2016-04-22T00:51:28.373Z,0
2016-04-22T00:52:28.361Z,0
2016-04-22T00:53:28.317Z,0
2016-04-22T00:54:28.273Z,0
2016-04-22T00:55:28.259Z,0
2016-04-22T00:56:28.230Z,0
2016-04-22T00:57:28.217Z,0
2016-04-22T00:58:28.173Z,0
2016-04-22T00:59:28.161Z,0
2016-04-22T01:00:28.132Z,0
2016-04-22T01:01:28.103Z,0
2016-04-22T01:02:28.058Z,0
2016-04-22T01:03:28.046Z,0
2016-04-22T01:04:28.018Z,0
2016-04-22T01:05:27.974Z,0
2016-04-22T01:06:27.960Z,0
2016-04-22T01:07:27.932Z,0
2016-04-22T01:08:27.904Z,0
2016-04-22T01:09:27.890Z,0
2016-04-22T01:10:27.846Z,0
2016-04-22T01:11:27.818Z,0
2016-04-22T01:12:27.805Z,0
2016-04-22T01:13:27.760Z,0
2016-04-22T01:14:27.748Z,0
2016-04-22T01:15:27.563Z,0
2016-04-22T01:16:27.534Z,0
2016-04-22T01:17:27.646Z,0
2016-04-22T01:18:27.618Z,0
2016-04-22T01:19:27.589Z,0
2016-04-22T01:20:27.561Z,0
2016-04-22T01:21:27.548Z,0
2016-04-22T01:22:27.520Z,0
2016-04-22T01:23:27.475Z,0
2016-04-22T01:24:27.447Z,0
2016-04-22T01:25:27.418Z,0
2016-04-22T01:26:27.405Z,0
2016-04-22T01:27:27.361Z,0
2016-04-22T01:28:27.364Z,0
2016-04-22T01:29:27.319Z,0
2016-04-22T01:30:27.291Z,0
2016-04-22T01:31:27.278Z,0
2016-04-22T01:32:27.233Z,0
2016-04-22T01:33:27.205Z,0
2016-04-22T01:34:27.177Z,0
2016-04-22T01:35:27.148Z,0
2016-04-22T01:36:27.135Z,0
2016-04-22T01:37:27.107Z,0
2016-04-22T01:38:27.063Z,0
2016-04-22T01:39:27.065Z,0
2016-04-22T01:40:27.005Z,0
2016-04-22T01:41:26.993Z,0
2016-04-22T01:42:26.964Z,0
2016-04-22T01:43:26.935Z,0
2016-04-22T01:44:26.891Z,0
2016-04-22T01:45:26.878Z,0
2016-04-22T01:46:26.849Z,0
2016-04-22T01:47:26.821Z,0
2016-04-22T01:48:26.793Z,0
2016-04-22T01:49:26.764Z,0
2016-04-22T01:50:26.720Z,0
2016-04-22T01:51:26.691Z,0
2016-04-22T01:52:26.678Z,0
2016-04-22T01:53:26.650Z,0
2016-04-22T01:54:26.606Z,0
2016-04-22T01:55:26.593Z,0
2016-04-22T01:56:26.564Z,0
2016-04-22T01:57:26.520Z,0
2016-04-22T01:58:26.506Z,0
2016-04-22T01:59:26.494Z,0
2016-04-22T02:00:26.465Z,0
2016-04-22T02:01:26.437Z,0
2016-04-22T02:02:26.408Z,0
2016-04-22T02:03:26.364Z,0
2016-04-22T02:04:26.351Z,0
2016-04-22T02:05:26.322Z,0
2016-04-22T02:06:26.278Z,0
2016-04-22T02:07:26.250Z,0
2016-04-22T02:08:26.222Z,0
2016-04-22T02:09:26.193Z,0
2016-04-22T02:10:26.164Z,0
2016-04-22T02:11:26.152Z,0
2016-04-22T02:12:26.122Z,0
2016-04-22T02:13:26.079Z,0
2016-04-22T02:14:26.050Z,0
2016-04-22T02:15:26.037Z,0
2016-04-22T02:16:25.977Z,0
2016-04-22T02:17:25.965Z,0
2016-04-22T02:18:25.935Z,0
2016-04-22T02:19:25.923Z,0
2016-04-22T02:20:25.879Z,0
2016-04-22T02:21:25.851Z,0
2016-04-22T02:22:25.821Z,0
2016-04-22T02:23:25.809Z,0
2016-04-22T02:24:25.779Z,0
2016-04-22T02:25:25.767Z,0
2016-04-22T02:26:25.723Z,0
2016-04-22T02:27:25.679Z,0
2016-04-22T02:28:25.634Z,0
2016-04-22T02:29:25.637Z,0
2016-04-22T02:30:25.593Z,0
2016-04-22T02:31:25.564Z,0
2016-04-22T02:32:25.551Z,0
2016-04-22T02:33:25.507Z,0
2016-04-22T02:34:25.478Z,0
2016-04-22T02:35:25.466Z,0
2016-04-22T02:36:25.422Z,0
2016-04-22T02:37:25.393Z,0
2016-04-22T02:38:25.364Z,0
2016-04-22T02:39:25.336Z,0
2016-04-22T02:40:25.307Z,0
2016-04-22T02:41:25.279Z,0
2016-04-22T02:42:25.250Z,0
2016-04-22T02:43:25.238Z,0
2016-04-22T02:44:25.193Z,0
2016-04-22T02:45:25.008Z,0
2016-04-22T02:46:25.151Z,0
2016-04-22T02:47:25.107Z,0
2016-04-22T02:48:25.063Z,0
2016-04-22T02:49:25.065Z,0
2016-04-22T02:50:25.021Z,0
2016-04-22T02:51:25.009Z,0
2016-04-22T02:52:24.965Z,0
2016-04-22T02:53:24.936Z,0
2016-04-22T02:54:24.923Z,0
2016-04-22T02:55:24.878Z,0
2016-04-22T02:56:24.851Z,0
2016-04-22T02:57:24.807Z,0
2016-04-22T02:58:24.792Z,0
2016-04-22T02:59:24.781Z,0
2016-04-22T03:00:24.751Z,0
2016-04-22T03:01:24.708Z,0
2016-04-22T03:02:24.679Z,0
2016-04-22T03:03:24.494Z,0
2016-04-22T03:04:24.622Z,0
2016-04-22T03:05:24.593Z,0
2016-04-22T03:06:24.564Z,0
2016-04-22T03:07:24.536Z,0
2016-04-22T03:08:24.491Z,0
2016-04-22T03:09:24.479Z,0
2016-04-22T03:10:24.450Z,0
2016-04-22T03:11:24.406Z,0
2016-04-22T03:12:24.394Z,0
2016-04-22T03:13:24.365Z,0
2016-04-22T03:14:24.321Z,0
2016-04-22T03:15:24.308Z,0
2016-04-22T03:16:24.279Z,0
2016-04-22T03:17:24.251Z,0
2016-04-22T03:18:24.207Z,0
2016-04-22T03:19:24.177Z,0
2016-04-22T03:20:24.165Z,0
2016-04-22T03:21:24.121Z,0
2016-04-22T03:22:24.139Z,0
2016-04-22T03:23:24.063Z,0
2016-04-22T03:24:24.035Z,0
2016-04-22T03:25:24.023Z,0
2016-04-22T03:26:23.994Z,0
2016-04-22T03:27:23.965Z,0
2016-04-22T03:28:23.937Z,0
2016-04-22T03:29:23.908Z,0
2016-04-22T03:30:23.864Z,0
2016-04-22T03:31:23.851Z,0
2016-04-22T03:32:23.822Z,0
2016-04-22T03:33:23.778Z,0
2016-04-22T03:34:23.764Z,0
2016-04-22T03:35:23.720Z,0
2016-04-22T03:36:23.689Z,0
2016-04-22T03:37:23.661Z,0
2016-04-22T03:38:23.632Z,4
2016-04-22T03:39:23.604Z,4
2016-04-22T03:40:23.575Z,4
2016-04-22T03:41:23.547Z,0
2016-04-22T03:42:23.519Z,0
2016-04-22T03:43:23.521Z,4
2016-04-22T03:44:23.477Z,4
2016-04-22T03:45:23.433Z,0
2016-04-22T03:46:23.404Z,4
2016-04-22T03:47:23.375Z,4
2016-04-22T03:48:23.363Z,4
2016-04-22T03:49:23.302Z,4
2016-04-22T03:50:23.290Z,8
2016-04-22T03:51:23.260Z,8
2016-04-22T03:52:23.232Z,8
2016-04-22T03:53:22.891Z,12
2016-04-22T03:54:23.207Z,16
2016-04-22T03:55:23.147Z,16
2016-04-22T03:56:23.135Z,20
2016-04-22T03:57:22.934Z,24
2016-04-22T03:58:23.202Z,24
2016-04-22T03:59:23.032Z,32
2016-04-22T04:00:23.004Z,36
2016-04-22T04:01:22.976Z,44
2016-04-22T04:02:22.947Z,52
2016-04-22T04:03:22.918Z,60
2016-04-22T04:04:22.889Z,68
2016-04-22T04:05:22.861Z,76
2016-04-22T04:06:22.833Z,88
2016-04-22T04:07:22.803Z,100
2016-04-22T04:08:22.620Z,112
2016-04-22T04:09:22.747Z,128
2016-04-22T04:10:22.719Z,140
2016-04-22T04:11:22.690Z,160
2016-04-22T04:12:22.661Z,176
2016-04-22T04:13:22.383Z,196
2016-04-22T04:14:22.604Z,216
2016-04-22T04:15:22.591Z,232
2016-04-22T04:16:22.563Z,248
2016-04-22T04:17:22.534Z,268
2016-04-22T04:18:22.505Z,296
2016-04-22T04:19:22.446Z,328
2016-04-22T04:20:22.432Z,364
2016-04-22T04:21:22.404Z,400
2016-04-22T04:22:22.110Z,440
2016-04-22T04:23:22.377Z,480
2016-04-22T04:24:22.371Z,524
2016-04-22T04:25:22.383Z,576
2016-04-22T04:26:22.393Z,632
2016-04-22T04:27:22.403Z,696
2016-04-22T04:28:22.309Z,768
2016-04-22T04:29:22.389Z,848
2016-04-22T04:30:22.376Z,932
2016-04-22T04:31:22.360Z,1012
2016-04-22T04:32:22.346Z,1084
2016-04-22T04:33:22.328Z,1160
2016-04-22T04:34:22.305Z,1240
2016-04-22T04:35:22.297Z,1320
2016-04-22T04:36:22.257Z,1396
2016-04-22T04:37:22.235Z,1488
2016-04-22T04:38:22.209Z,1644
2016-04-22T04:39:22.198Z,1856
2016-04-22T04:40:22.187Z,1964
2016-04-22T04:41:22.129Z,1904
2016-04-22T04:42:22.118Z,1964
2016-04-22T04:43:22.107Z,2220
2016-04-22T04:44:22.047Z,2324
2016-04-22T04:45:22.019Z,2168
2016-04-22T04:46:22.006Z,2096
2016-04-22T04:47:21.978Z,2156
2016-04-22T04:48:21.965Z,2228
2016-04-22T04:49:21.923Z,2324
2016-04-22T04:50:21.910Z,2420
2016-04-22T04:51:21.850Z,2508
2016-04-22T04:52:21.838Z,2592
2016-04-22T04:53:21.810Z,2660
2016-04-22T04:54:21.781Z,2748
2016-04-22T04:55:21.752Z,2808
2016-04-22T04:56:21.739Z,2856
2016-04-22T04:57:21.710Z,2920
2016-04-22T04:58:21.682Z,3008
2016-04-22T04:59:21.654Z,3100
2016-04-22T05:00:21.624Z,3188
2016-04-22T05:01:21.581Z,3276
2016-04-22T05:02:21.599Z,3356
2016-04-22T05:03:21.554Z,3412
2016-04-22T05:04:21.510Z,3504
2016-04-22T05:05:21.310Z,3676
2016-04-22T05:06:21.470Z,3852
2016-04-22T05:07:21.441Z,4028
2016-04-22T05:08:21.412Z,4200
2016-04-22T05:09:21.368Z,4388
2016-04-22T05:10:21.371Z,4544
2016-04-22T05:11:21.312Z,4708
2016-04-22T05:12:21.283Z,4876
2016-04-22T05:13:21.254Z,5116
2016-04-22T05:14:21.226Z,5344
2016-04-22T05:15:21.213Z,5564
2016-04-22T05:16:21.169Z,5800
2016-04-22T05:17:21.156Z,5936
2016-04-22T05:18:21.128Z,6116
2016-04-22T05:19:21.084Z,6236
2016-04-22T05:20:21.071Z,6312
2016-04-22T05:21:21.057Z,6280
2016-04-22T05:22:21.029Z,6256
2016-04-22T05:23:21.001Z,6276
2016-04-22T05:24:20.956Z,6320
2016-04-22T05:25:20.928Z,6348
2016-04-22T05:26:20.914Z,6372
2016-04-22T05:27:20.870Z,6476
2016-04-22T05:28:20.858Z,6552
2016-04-22T05:29:20.829Z,6568
2016-04-22T05:30:20.800Z,6576
2016-04-22T05:31:20.788Z,6532
2016-04-22T05:32:20.759Z,6460
2016-04-22T05:33:20.714Z,6440
2016-04-22T05:34:20.702Z,6368
2016-04-22T05:35:20.674Z,6344
2016-04-22T05:36:20.644Z,6332
2016-04-22T05:37:20.616Z,6328
2016-04-22T05:38:20.572Z,6328
2016-04-22T05:39:20.560Z,6432
2016-04-22T05:40:20.547Z,6552
2016-04-22T05:41:20.501Z,6740
2016-04-22T05:42:20.489Z,6960
2016-04-22T05:43:20.460Z,7100
2016-04-22T05:44:20.416Z,7284
2016-04-22T05:45:20.404Z,7436
2016-04-22T05:46:20.374Z,7600
2016-04-22T05:47:20.346Z,7624
2016-04-22T05:48:20.318Z,7716
2016-04-22T05:49:20.304Z,7796
2016-04-22T05:50:20.276Z,7768
2016-04-22T05:51:20.247Z,7780
2016-04-22T05:52:20.219Z,7752
2016-04-22T05:53:20.190Z,7720
2016-04-22T05:54:20.177Z,7628
2016-04-22T05:55:20.133Z,7636
2016-04-22T05:56:20.136Z,7660
2016-04-22T05:57:20.123Z,7612
2016-04-22T05:58:20.078Z,7556
2016-04-22T05:59:20.035Z,7520
2016-04-22T06:00:20.022Z,7540
2016-04-22T06:01:20.009Z,7368
2016-04-22T06:02:19.964Z,7332
2016-04-22T06:03:19.920Z,7236
2016-04-22T06:04:19.923Z,7084
2016-04-22T06:05:19.880Z,7072
2016-04-22T06:06:19.850Z,7164
2016-04-22T06:07:19.838Z,7240
2016-04-22T06:08:19.809Z,7316
2016-04-22T06:09:19.781Z,7460
2016-04-22T06:10:19.767Z,7504
2016-04-22T06:11:19.754Z,7440
2016-04-22T06:12:19.726Z,7492
2016-04-22T06:13:19.666Z,7592
2016-04-22T06:14:19.653Z,7540
2016-04-22T06:15:19.641Z,7504
2016-04-22T06:16:19.595Z,7468
2016-04-22T06:17:19.582Z,7448
2016-04-22T06:18:19.554Z,7264
2016-04-22T06:19:19.573Z,7184
2016-04-22T06:20:19.512Z,7156
2016-04-22T06:21:19.484Z,7276
2016-04-22T06:22:19.440Z,7420
2016-04-22T06:23:19.442Z,7748
2016-04-22T06:24:19.398Z,8092
2016-04-22T06:25:19.370Z,8312
2016-04-22T06:26:19.373Z,8628
2016-04-22T06:27:19.314Z,8924
2016-04-22T06:28:19.300Z,9156
2016-04-22T06:29:19.272Z,8860
2016-04-22T06:30:19.242Z,9240
2016-04-22T06:31:19.246Z,9320
2016-04-22T06:32:19.186Z,8952
2016-04-22T06:33:19.158Z,8804
2016-04-22T06:34:19.129Z,8532
2016-04-22T06:35:19.116Z,8756
2016-04-22T06:36:19.103Z,8484
2016-04-22T06:37:19.075Z,8328
2016-04-22T06:38:19.046Z,8136
2016-04-22T06:39:19.017Z,7960
2016-04-22T06:40:18.988Z,8060
2016-04-22T06:41:18.976Z,8232
2016-04-22T06:42:18.947Z,8676
2016-04-22T06:43:18.918Z,9204
2016-04-22T06:44:18.890Z,8216
2016-04-22T06:45:18.877Z,8328
2016-04-22T06:46:18.865Z,9804
2016-04-22T06:47:18.804Z,9216
2016-04-22T06:48:18.791Z,9992
2016-04-22T06:49:18.779Z,8552
2016-04-22T06:50:18.735Z,8040
2016-04-22T06:51:18.721Z,8780
2016-04-22T06:52:18.693Z,9020
2016-04-22T06:53:18.664Z,8796
2016-04-22T06:54:18.652Z,8004
2016-04-22T06:55:18.606Z,9104
2016-04-22T06:56:18.578Z,9972
2016-04-22T06:57:18.565Z,9260
2016-04-22T06:58:18.522Z,8484
2016-04-22T06:59:18.509Z,8972
2016-04-22T07:00:18.496Z,10012
2016-04-22T07:01:18.467Z,8336
2016-04-22T07:02:18.438Z,8360
2016-04-22T07:03:18.410Z,7796
2016-04-22T07:04:18.397Z,8148
2016-04-22T07:05:18.384Z,8948
2016-04-22T07:06:18.339Z,8976
2016-04-22T07:07:18.311Z,8288
2016-04-22T07:08:18.314Z,8664
2016-04-22T07:09:18.269Z,8844
2016-04-22T07:10:18.241Z,8148
2016-04-22T07:11:18.213Z,8000
2016-04-22T07:12:18.200Z,8476
2016-04-22T07:13:18.172Z,10508
2016-04-22T07:14:18.143Z,13584
2016-04-22T07:15:20.161Z,14900
2016-04-22T07:16:18.101Z,17432
2016-04-22T07:17:18.073Z,17460
2016-04-22T07:18:18.060Z,17048
2016-04-22T07:19:18.046Z,16776
2016-04-22T07:20:19.346Z,20384
2016-04-22T07:21:18.021Z,23520
2016-04-22T07:22:17.945Z,24608
2016-04-22T07:23:17.932Z,18368
2016-04-22T07:24:17.904Z,18592
2016-04-22T07:25:21.547Z,15104
2016-04-22T07:26:17.862Z,14604
2016-04-22T07:27:17.818Z,16932
2016-04-22T07:28:17.805Z,17672
2016-04-22T07:29:17.792Z,15896
2016-04-22T07:30:22.483Z,16088
2016-04-22T07:31:17.736Z,15252
2016-04-22T07:32:17.707Z,12112
2016-04-22T07:33:17.678Z,10040
2016-04-22T07:34:17.664Z,9324
2016-04-22T07:35:19.387Z,9640
2016-04-22T07:36:17.624Z,9180
2016-04-22T07:37:17.611Z,8856
2016-04-22T07:38:17.598Z,57408
2016-04-22T07:39:17.569Z,61984
2016-04-22T07:40:17.525Z,63296
2016-04-22T07:41:17.559Z,59680
2016-04-22T07:42:17.499Z,59744
2016-04-22T07:43:22.361Z,44960
2016-04-22T07:44:22.286Z,54048
2016-04-22T07:45:21.960Z,36768
2016-04-22T07:46:18.619Z,39552
2016-04-22T07:47:18.075Z,53184
2016-04-22T07:48:22.187Z,38560
2016-04-22T07:49:22.424Z,43008
2016-04-22T07:50:24.599Z,60544
2016-04-22T07:51:22.445Z,61568
2016-04-22T07:52:22.651Z,66848
2016-04-22T07:53:22.841Z,68096
2016-04-22T07:54:22.750Z,71808
2016-04-22T07:55:23.800Z,34208
2016-04-22T07:56:22.068Z,24096
2016-04-22T07:57:22.790Z,44352
2016-04-22T07:58:22.605Z,19456
2016-04-22T07:59:22.296Z,17904
2016-04-22T08:00:23.579Z,21376
2016-04-22T08:01:17.129Z,21664
2016-04-22T08:02:22.350Z,23872
2016-04-22T08:03:22.180Z,37792
2016-04-22T08:04:22.215Z,15784
2016-04-22T08:05:21.812Z,16568
2016-04-22T08:06:17.032Z,30976
2016-04-22T08:07:17.004Z,30528
2016-04-22T08:08:16.991Z,23392
2016-04-22T08:09:16.978Z,19136
2016-04-22T08:10:18.544Z,35168
2016-04-22T08:11:16.921Z,21568
2016-04-22T08:12:16.908Z,32224
2016-04-22T08:13:16.895Z,27008
2016-04-22T08:14:16.788Z,34272
2016-04-22T08:15:16.869Z,28800
2016-04-22T08:16:16.841Z,31232
2016-04-22T08:17:18.171Z,25408
2016-04-22T08:18:16.799Z,26880
2016-04-22T08:19:16.786Z,25440
2016-04-22T08:20:16.758Z,27392
2016-04-22T08:21:16.760Z,23712
2016-04-22T08:22:16.732Z,25472
2016-04-22T08:23:16.735Z,22720
2016-04-22T08:24:16.690Z,25824
2016-04-22T08:25:16.677Z,30016
2016-04-22T08:26:16.665Z,39072
2016-04-22T08:27:16.636Z,35264
2016-04-22T08:28:16.607Z,33632
2016-04-22T08:29:16.470Z,41504
2016-04-22T08:30:16.581Z,26112
2016-04-22T08:31:16.553Z,19328
2016-04-22T08:32:16.540Z,15748
2016-04-22T08:33:16.527Z,21728
2016-04-22T08:34:16.498Z,37376
2016-04-22T08:35:16.486Z,65120
2016-04-22T08:36:16.472Z,54976
2016-04-22T08:37:16.460Z,31744
2016-04-22T08:38:16.431Z,22112
2016-04-22T08:39:16.839Z,20992
2016-04-22T08:40:17.249Z,19648
2016-04-22T08:41:16.361Z,18784
2016-04-22T08:42:16.364Z,16964
2016-04-22T08:43:16.351Z,16400
2016-04-22T08:44:16.322Z,15756
2016-04-22T08:45:16.294Z,16776
2016-04-22T08:46:16.266Z,16776
2016-04-22T08:47:16.252Z,16388
2016-04-22T08:48:16.239Z,16104
2016-04-22T08:49:16.211Z,15772
2016-04-22T08:50:16.838Z,15940
2016-04-22T08:51:16.169Z,16092
2016-04-22T08:52:16.156Z,16596
2016-04-22T08:53:16.144Z,17040
2016-04-22T08:54:16.130Z,16956
2016-04-22T08:55:17.883Z,16784
2016-04-22T08:56:16.074Z,15984
2016-04-22T08:57:16.060Z,15412
2016-04-22T08:58:16.031Z,14728
2016-04-22T08:59:16.018Z,14984
2016-04-22T09:00:19.476Z,15028
2016-04-22T09:01:15.978Z,14360
2016-04-22T09:02:15.949Z,14160
2016-04-22T09:03:15.951Z,14164
2016-04-22T09:04:15.923Z,14680
2016-04-22T09:05:15.801Z,15132
2016-04-22T09:06:15.866Z,15812
2016-04-22T09:07:15.837Z,15616
2016-04-22T09:08:15.825Z,15832
2016-04-22T09:09:15.078Z,15768
2016-04-22T09:10:16.205Z,16500
2016-04-22T09:11:15.770Z,16772
2016-04-22T09:12:15.788Z,17276
2016-04-22T09:13:15.728Z,17496
2016-04-22T09:14:15.715Z,16912
2016-04-22T09:15:16.530Z,16020
2016-04-22T09:16:15.659Z,15020
2016-04-22T09:17:15.661Z,14684
2016-04-22T09:18:19.070Z,14004
2016-04-22T09:19:15.604Z,13160
2016-04-22T09:20:17.685Z,12492
2016-04-22T09:21:15.563Z,12044
2016-04-22T09:22:15.549Z,12764
2016-04-22T09:23:15.747Z,13012
2016-04-22T09:24:15.500Z,12792
2016-04-22T09:25:15.470Z,12744
2016-04-22T09:26:15.473Z,13236
2016-04-22T09:27:15.429Z,13448
2016-04-22T09:28:15.431Z,13832
2016-04-22T09:29:15.404Z,13920
2016-04-22T09:30:17.797Z,13304
2016-04-22T09:31:15.361Z,12864
2016-04-22T09:32:15.334Z,12300
2016-04-22T09:33:15.367Z,12868
2016-04-22T09:34:15.307Z,13024
2016-04-22T09:35:16.561Z,12920
2016-04-22T09:36:15.251Z,13116
2016-04-22T09:37:15.238Z,13496
2016-04-22T09:38:15.210Z,13656
2016-04-22T09:39:15.181Z,13052
2016-04-22T09:40:16.325Z,11824
2016-04-22T09:41:15.139Z,11144
2016-04-22T09:42:15.127Z,10504
2016-04-22T09:43:15.098Z,10316
2016-04-22T09:44:15.069Z,11016
2016-04-22T09:45:15.057Z,11920
2016-04-22T09:46:15.044Z,12692
2016-04-22T09:47:15.031Z,12348
2016-04-22T09:48:15.003Z,13272
2016-04-22T09:49:14.974Z,11348
2016-04-22T09:50:14.946Z,10996
2016-04-22T09:51:14.948Z,13220
2016-04-22T09:52:14.919Z,16340
2016-04-22T09:53:14.890Z,17504
2016-04-22T09:54:14.862Z,16228
2016-04-22T09:55:14.849Z,14580
2016-04-22T09:56:14.837Z,14244
2016-04-22T09:57:14.808Z,13856
2016-04-22T09:58:14.623Z,13260
2016-04-22T09:59:14.782Z,12608
2016-04-22T10:00:15.800Z,11232
2016-04-22T10:01:14.740Z,10516
2016-04-22T10:02:14.696Z,9748
2016-04-22T10:03:14.698Z,9880
2016-04-22T10:04:14.655Z,10332
2016-04-22T10:05:15.203Z,10436
2016-04-22T10:06:14.614Z,10376
2016-04-22T10:07:14.600Z,10388
2016-04-22T10:13:40.634Z,11424
2016-04-22T10:14:40.621Z,12020
2016-04-22T10:15:40.593Z,12876
2016-04-22T10:16:40.580Z,14060
2016-04-22T10:17:40.566Z,15904
2016-04-22T10:18:40.554Z,17212
2016-04-22T10:19:40.354Z,16900
2016-04-22T10:20:40.497Z,14996
2016-04-22T10:21:40.327Z,12944
2016-04-22T10:22:40.455Z,13744
2016-04-22T10:23:40.426Z,15136
2016-04-22T10:24:40.429Z,15096
2016-04-22T10:25:40.401Z,13132
2016-04-22T10:26:40.372Z,12048
2016-04-22T10:27:40.187Z,11592
2016-04-22T10:28:40.346Z,11272
2016-04-22T10:29:40.318Z,10944
2016-04-22T10:30:40.289Z,10356
2016-04-22T10:31:40.261Z,9928
2016-04-22T10:32:40.248Z,10000
2016-04-22T10:33:40.235Z,10452
2016-04-22T10:34:40.223Z,11520
2016-04-22T10:35:40.194Z,12544
2016-04-22T10:36:40.164Z,13260
2016-04-22T10:37:40.152Z,13876
2016-04-22T10:38:40.123Z,13600
2016-04-22T10:39:40.142Z,13652
2016-04-22T10:40:40.097Z,14392
2016-04-22T10:41:40.069Z,14740
2016-04-22T10:42:40.041Z,16024
2016-04-22T10:43:40.028Z,15360
2016-04-22T10:44:40.046Z,13232
2016-04-22T10:45:39.986Z,12660
2016-04-22T10:46:39.988Z,13300
2016-04-22T10:47:39.944Z,12884
2016-04-22T10:48:39.963Z,13536
2016-04-22T10:49:39.934Z,13704
2016-04-22T10:50:39.905Z,12876
2016-04-22T10:51:39.861Z,12688
2016-04-22T10:52:39.864Z,12556
2016-04-22T10:53:39.867Z,12956
2016-04-22T10:54:39.823Z,13860
2016-04-22T10:55:39.793Z,14496
2016-04-22T10:56:39.796Z,14320
2016-04-22T10:57:39.753Z,13824
2016-04-22T10:58:39.739Z,13112
2016-04-22T10:59:39.711Z,12728
2016-04-22T11:00:39.682Z,12400
2016-04-22T11:01:39.685Z,11772
2016-04-22T11:02:39.656Z,10952
2016-04-22T11:03:39.659Z,10248
2016-04-22T11:04:39.614Z,10092
2016-04-22T11:05:39.618Z,10260
2016-04-22T11:06:39.606Z,10616
2016-04-22T11:07:39.561Z,10996
2016-04-22T11:08:39.563Z,11408
2016-04-22T11:09:39.519Z,11336
2016-04-22T11:10:39.506Z,11044
2016-04-22T11:11:39.477Z,10868
2016-04-22T11:12:39.480Z,10292
2016-04-22T11:13:39.467Z,9632
2016-04-22T11:14:39.424Z,8980
2016-04-22T11:15:39.410Z,8336
2016-04-22T11:16:39.382Z,7720
2016-04-22T11:17:39.384Z,7472
2016-04-22T11:18:39.371Z,7304
2016-04-22T11:19:39.327Z,7308
2016-04-22T11:20:39.315Z,8140
2016-04-22T11:21:39.310Z,9040
2016-04-22T11:22:39.498Z,9824
2016-04-22T11:23:39.236Z,9036
2016-04-22T11:24:39.223Z,8044
2016-04-22T11:25:39.194Z,7180
2016-04-22T11:26:39.181Z,6796
2016-04-22T11:27:39.168Z,6608
2016-04-22T11:28:39.156Z,6480
2016-04-22T11:29:39.127Z,6416
2016-04-22T11:30:39.130Z,6132
2016-04-22T11:31:39.086Z,6084
2016-04-22T11:32:39.089Z,5940
2016-04-22T11:33:39.059Z,5736
2016-04-22T11:34:39.030Z,5520
2016-04-22T11:35:39.019Z,5336
2016-04-22T11:36:38.989Z,5148
2016-04-22T11:37:38.960Z,4980
2016-04-22T11:38:38.947Z,4840
2016-04-22T11:39:38.919Z,4684
2016-04-22T11:40:38.907Z,4820
2016-04-22T11:41:38.877Z,4892
2016-04-22T11:42:38.880Z,5000
2016-04-22T11:43:38.852Z,4708
2016-04-22T11:44:38.824Z,4588
2016-04-22T11:45:38.810Z,4540
2016-04-22T11:46:38.781Z,4520
2016-04-22T11:47:38.753Z,4468
2016-04-22T11:48:38.740Z,4360
2016-04-22T11:49:38.727Z,4312
2016-04-22T11:50:38.729Z,4528
2016-04-22T11:51:38.686Z,4564
2016-04-22T11:52:38.673Z,4684
2016-04-22T11:53:38.629Z,4464
2016-04-22T11:54:38.600Z,4464
2016-04-22T11:55:38.587Z,4536
2016-04-22T11:56:38.574Z,4600
2016-04-22T11:57:38.546Z,4640
2016-04-22T11:58:38.533Z,4620
2016-04-22T11:59:38.536Z,4604
2016-04-22T12:00:38.476Z,4588
2016-04-22T12:01:38.463Z,4484
2016-04-22T12:02:38.450Z,4344
2016-04-22T12:03:38.437Z,4212
2016-04-22T12:04:38.408Z,4232
2016-04-22T12:05:38.395Z,4252
2016-04-22T12:06:38.383Z,4340
2016-04-22T12:07:38.354Z,4424
2016-04-22T12:08:38.544Z,4508
2016-04-22T12:09:38.328Z,4644
2016-04-22T12:10:38.283Z,4652
2016-04-22T12:11:38.255Z,4620
2016-04-22T12:12:38.242Z,4648
2016-04-22T12:13:38.213Z,4568
2016-04-22T12:14:38.201Z,4716
2016-04-22T12:15:38.172Z,4760
2016-04-22T12:16:38.160Z,4628
2016-04-22T12:17:38.132Z,4476
2016-04-22T12:18:38.118Z,4328
2016-04-22T12:19:40.669Z,4196
2016-04-22T12:20:38.078Z,4044
2016-04-22T12:21:38.065Z,4012
2016-04-22T12:22:38.022Z,4016
2016-04-22T12:23:38.008Z,4024
2016-04-22T12:24:37.995Z,4020
2016-04-22T12:25:37.982Z,4024
2016-04-22T12:26:37.938Z,4040
2016-04-22T12:27:37.925Z,4048
2016-04-22T12:28:37.928Z,4068
2016-04-22T12:29:37.884Z,4060
2016-04-22T12:30:37.855Z,4036
2016-04-22T12:31:37.842Z,4092
2016-04-22T12:32:37.829Z,4152
2016-04-22T12:33:37.816Z,4108
2016-04-22T12:34:37.772Z,4068
2016-04-22T12:35:37.744Z,3988
2016-04-22T12:36:37.731Z,3908
2016-04-22T12:37:37.702Z,3824
2016-04-22T12:38:37.705Z,3752
2016-04-22T12:39:38.208Z,3696
2016-04-22T12:40:37.648Z,3652
2016-04-22T12:41:37.619Z,3616
2016-04-22T12:42:37.606Z,3592
2016-04-22T12:43:37.578Z,3568
2016-04-22T12:44:37.565Z,3548
2016-04-22T12:45:37.536Z,3568
2016-04-22T12:46:37.429Z,3580
2016-04-22T12:47:37.494Z,3576
2016-04-22T12:48:37.512Z,3580
2016-04-22T12:49:37.484Z,3632
2016-04-22T12:50:37.425Z,3736
2016-04-22T12:51:37.411Z,3912
2016-04-22T12:52:37.399Z,4096
2016-04-22T12:53:37.401Z,4280
2016-04-22T12:54:37.216Z,4436
2016-04-22T12:55:37.360Z,4584
2016-04-22T12:56:37.331Z,4752
2016-04-22T12:57:37.319Z,4916
2016-04-22T12:58:37.290Z,5024
2016-04-22T12:59:37.262Z,5132
2016-04-22T13:00:37.233Z,5220
2016-04-22T13:01:37.219Z,5316
2016-04-22T13:02:37.191Z,5400
2016-04-22T13:03:37.163Z,5460
2016-04-22T13:04:37.150Z,5440
2016-04-22T13:05:37.126Z,5428
2016-04-22T13:06:37.098Z,5336
2016-04-22T13:07:37.069Z,5264
2016-04-22T13:08:37.056Z,5076
2016-04-22T13:09:37.059Z,4820
2016-04-22T13:10:37.030Z,4564
2016-04-22T13:11:37.002Z,4492
2016-04-22T13:12:36.971Z,4304
2016-04-22T13:13:36.973Z,4200
2016-04-22T13:14:36.945Z,4088
2016-04-22T13:15:36.932Z,3980
2016-04-22T13:16:36.904Z,3956
2016-04-22T13:17:36.879Z,3928
2016-04-22T13:18:36.866Z,3852
2016-04-22T13:19:36.839Z,3820
2016-04-22T13:20:36.809Z,3752
2016-04-22T13:21:36.816Z,3596
2016-04-22T13:22:36.757Z,3592
2016-04-22T13:23:36.760Z,3632
2016-04-22T13:24:36.731Z,3568
2016-04-22T13:25:36.718Z,3528
2016-04-22T13:26:36.690Z,3520
2016-04-22T13:27:36.677Z,3564
2016-04-22T13:28:36.633Z,3576
2016-04-22T13:29:36.639Z,3572
2016-04-22T13:30:36.654Z,3760
2016-04-22T13:31:36.686Z,3896
2016-04-22T13:32:36.575Z,3872
2016-04-22T13:33:36.730Z,3952
2016-04-22T13:34:36.747Z,3992
2016-04-22T13:35:36.749Z,3984
2016-04-22T13:36:36.737Z,4036
2016-04-22T13:37:36.740Z,4060
2016-04-22T13:38:36.726Z,4032
2016-04-22T13:39:36.709Z,3972
2016-04-22T13:40:36.700Z,3896